Time;durP1;ratioP1;P1;durP2;ratioP2;P2;SDS_P1;SDS_P2;PMS_P1;PMS_P2;Temp;Humidity;BMP_temperature;BMP_pressure;BME280_temperature;BME280_humidity;BME280_pressure;Samples;Min_cycle;Max_cycle;Signal;HPM_P1;HPM_P2
2022/07/09 00:01:46;;;;;;;16.88;4.93;;;16.70;99.90;;;;;;5075860;28;20044;-78
2022/07/09 00:04:12;;;;;;;16.55;5.47;;;16.60;99.90;;;;;;5076923;28;20491;-77
2022/07/09 00:06:37;;;;;;;15.10;5.57;;;16.60;99.90;;;;;;5076818;28;20476;-78
2022/07/09 00:09:04;;;;;;;17.35;6.38;;;16.60;99.90;;;;;;5076977;28;20063;-78
2022/07/09 00:11:29;;;;;;;17.85;7.30;;;16.60;99.90;;;;;;5076985;28;20059;-78
2022/07/09 00:13:55;;;;;;;19.83;7.32;;;16.60;99.90;;;;;;5076854;28;20052;-78
2022/07/09 00:16:20;;;;;;;17.55;6.78;;;16.60;99.90;;;;;;5076928;28;20055;-77
2022/07/09 00:18:46;;;;;;;15.95;6.72;;;16.60;99.90;;;;;;5076827;28;20063;-77
2022/07/09 00:21:12;;;;;;;22.00;6.90;;;16.70;99.90;;;;;;5076482;28;20088;-78
2022/07/09 00:23:37;;;;;;;18.20;6.70;;;16.70;99.90;;;;;;5076833;28;20036;-78
2022/07/09 00:26:03;;;;;;;19.80;6.28;;;16.70;99.90;;;;;;5076667;28;20079;-78
2022/07/09 00:28:29;;;;;;;18.35;6.28;;;16.70;99.90;;;;;;5076744;28;20169;-78
2022/07/09 00:30:54;;;;;;;13.18;6.00;;;16.70;99.90;;;;;;5076632;28;20090;-78
2022/07/09 00:33:20;;;;;;;16.13;7.00;;;16.70;99.90;;;;;;5076438;28;20044;-78
2022/07/09 00:35:46;;;;;;;18.65;6.28;;;16.70;99.90;;;;;;5075081;28;20044;-78
2022/07/09 00:38:11;;;;;;;17.55;6.68;;;16.70;99.90;;;;;;5076327;28;20037;-78
2022/07/09 00:40:37;;;;;;;22.27;6.45;;;16.80;99.90;;;;;;5076234;28;20040;-78
2022/07/09 00:43:03;;;;;;;23.58;5.97;;;16.80;99.90;;;;;;5076710;28;20048;-78
2022/07/09 00:45:29;;;;;;;19.98;6.43;;;16.70;99.90;;;;;;5076283;28;20036;-78
2022/07/09 00:47:54;;;;;;;17.33;5.93;;;16.80;99.90;;;;;;5076268;28;20041;-78
2022/07/09 00:50:20;;;;;;;17.45;5.70;;;16.80;99.90;;;;;;5076038;28;20044;-78
2022/07/09 00:52:48;;;;;;;16.48;5.13;;;16.80;99.90;;;;;;5076249;28;20036;-78
2022/07/09 00:55:14;;;;;;;17.98;5.20;;;16.80;99.90;;;;;;5076251;28;20115;-78
2022/07/09 00:57:40;;;;;;;22.63;5.55;;;16.80;99.90;;;;;;5076072;28;20123;-78
2022/07/09 01:00:06;;;;;;;12.93;5.53;;;16.80;99.90;;;;;;5076124;28;20044;-78
2022/07/09 01:02:33;;;;;;;17.92;5.05;;;16.80;99.90;;;;;;5076079;28;20040;-78
2022/07/09 01:04:58;;;;;;;15.43;5.35;;;16.80;99.90;;;;;;5075542;28;20048;-78
2022/07/09 01:07:24;;;;;;;14.05;5.05;;;16.80;99.90;;;;;;5075997;28;20032;-78
2022/07/09 01:09:50;;;;;;;13.57;4.43;;;16.90;99.90;;;;;;5075978;28;20494;-78
2022/07/09 01:12:16;;;;;;;9.82;4.03;;;16.90;99.90;;;;;;5075952;28;20040;-78
2022/07/09 01:14:41;;;;;;;13.02;4.25;;;16.90;99.90;;;;;;5075567;28;20475;-78
2022/07/09 01:17:07;;;;;;;13.23;4.28;;;16.90;99.90;;;;;;5074738;28;20127;-78
2022/07/09 01:19:34;;;;;;;13.30;4.10;;;16.90;99.90;;;;;;5075530;28;20052;-78
2022/07/09 01:22:00;;;;;;;10.00;3.55;;;16.90;99.90;;;;;;5075907;28;20123;-78
2022/07/09 01:24:26;;;;;;;13.52;3.85;;;16.90;99.90;;;;;;5075824;28;20502;-78
2022/07/09 01:26:53;;;;;;;12.57;3.63;;;17.00;99.90;;;;;;5075649;28;20045;-78
2022/07/09 01:29:20;;;;;;;11.15;3.70;;;17.00;99.90;;;;;;5075525;28;20479;-77
2022/07/09 01:31:46;;;;;;;14.65;4.03;;;17.10;99.90;;;;;;5075466;28;20044;-78
2022/07/09 01:34:11;;;;;;;11.18;4.38;;;17.10;99.90;;;;;;5075475;28;20123;-78
2022/07/09 01:36:37;;;;;;;10.02;3.28;;;17.10;99.90;;;;;;5075332;28;20037;-78
2022/07/09 01:39:03;;;;;;;11.50;3.28;;;17.10;99.90;;;;;;5074017;28;20048;-78
2022/07/09 01:41:30;;;;;;;16.83;3.42;;;17.10;99.90;;;;;;5074316;28;20124;-78
2022/07/09 01:43:56;;;;;;;8.95;2.88;;;17.10;99.90;;;;;;5075283;28;20063;-78
2022/07/09 01:46:22;;;;;;;9.65;3.17;;;17.10;99.90;;;;;;5074864;28;20387;-78
2022/07/09 01:48:47;;;;;;;11.00;3.40;;;17.10;99.90;;;;;;5074901;28;20040;-78
2022/07/09 01:51:13;;;;;;;14.40;3.15;;;17.10;99.90;;;;;;5073563;28;20056;-78
2022/07/09 01:53:39;;;;;;;8.90;3.00;;;17.10;99.90;;;;;;5075091;28;20037;-78
2022/07/09 01:56:09;;;;;;;11.15;3.63;;;17.10;99.90;;;;;;5073735;28;20048;-78
2022/07/09 01:58:35;;;;;;;9.88;3.17;;;17.10;99.90;;;;;;5073668;28;20142;-78
2022/07/09 02:01:02;;;;;;;8.00;2.90;;;17.10;99.90;;;;;;5074874;28;20040;-78
2022/07/09 02:03:28;;;;;;;7.95;3.15;;;17.10;99.90;;;;;;5074886;28;20041;-78
2022/07/09 02:05:54;;;;;;;8.88;2.90;;;17.10;99.90;;;;;;5073218;28;20482;-78
2022/07/09 02:08:19;;;;;;;10.25;2.85;;;17.10;99.90;;;;;;5074757;28;20120;-78
2022/07/09 02:10:45;;;;;;;8.57;3.17;;;17.10;99.90;;;;;;5074738;28;20387;-78
2022/07/09 02:13:12;;;;;;;9.65;3.13;;;17.10;99.90;;;;;;5073391;28;20120;-78
2022/07/09 02:15:39;;;;;;;8.85;3.45;;;17.10;99.90;;;;;;5073873;28;20048;-78
2022/07/09 02:18:04;;;;;;;12.48;4.20;;;17.10;99.90;;;;;;5074640;28;20115;-78
2022/07/09 02:20:30;;;;;;;8.48;4.00;;;17.10;99.90;;;;;;5074324;28;20518;-78
2022/07/09 02:22:56;;;;;;;8.93;3.60;;;17.10;99.90;;;;;;5074464;28;20445;-78
2022/07/09 02:25:22;;;;;;;12.32;4.10;;;17.00;99.90;;;;;;5074457;28;20471;-78
2022/07/09 02:27:47;;;;;;;7.13;2.92;;;17.00;99.90;;;;;;5074316;28;20045;-78
2022/07/09 02:30:13;;;;;;;12.40;3.42;;;16.90;99.90;;;;;;5074377;28;20043;-78
2022/07/09 02:32:39;;;;;;;11.38;3.25;;;16.90;99.90;;;;;;5074269;28;20045;-78
2022/07/09 02:35:06;;;;;;;8.55;2.90;;;16.90;99.90;;;;;;5074138;28;20045;-78
2022/07/09 02:37:32;;;;;;;7.78;3.35;;;16.80;99.90;;;;;;5074304;28;20036;-78
2022/07/09 02:39:58;;;;;;;6.55;3.17;;;16.90;99.90;;;;;;5074030;28;20052;-78
2022/07/09 02:42:23;;;;;;;7.25;3.10;;;16.80;99.90;;;;;;5074111;28;20044;-78
2022/07/09 02:44:49;;;;;;;9.00;3.08;;;16.80;99.90;;;;;;5074057;28;20037;-78
2022/07/09 02:47:15;;;;;;;5.97;3.08;;;16.80;99.90;;;;;;5073862;28;20067;-78
2022/07/09 02:49:41;;;;;;;10.05;3.75;;;16.80;99.90;;;;;;5074091;28;20047;-78
2022/07/09 02:52:07;;;;;;;7.05;2.80;;;16.80;99.90;;;;;;5072902;28;20132;-78
2022/07/09 02:54:33;;;;;;;8.25;3.25;;;16.80;99.90;;;;;;5073998;28;20537;-78
2022/07/09 02:56:59;;;;;;;9.20;2.92;;;16.70;99.90;;;;;;5073963;28;20048;-78
2022/07/09 02:59:25;;;;;;;7.85;2.85;;;16.80;99.90;;;;;;5074341;28;20079;-78
2022/07/09 03:01:51;;;;;;;8.23;3.00;;;16.80;99.90;;;;;;5073897;28;20040;-78
2022/07/09 03:04:17;;;;;;;8.10;3.20;;;16.80;99.90;;;;;;5073828;28;20063;-78
2022/07/09 03:06:43;;;;;;;8.30;2.92;;;16.80;99.90;;;;;;5073828;28;20380;-78
2022/07/09 03:09:09;;;;;;;9.93;3.00;;;16.80;99.90;;;;;;5073741;28;20139;-78
2022/07/09 03:11:35;;;;;;;8.00;3.30;;;16.80;99.90;;;;;;5073699;28;20525;-78
2022/07/09 03:14:00;;;;;;;9.48;3.10;;;16.80;99.90;;;;;;5073352;28;20032;-78
2022/07/09 03:16:26;;;;;;;9.88;3.17;;;16.80;99.90;;;;;;5071848;28;20044;-78
2022/07/09 03:18:52;;;;;;;11.32;3.10;;;16.80;99.90;;;;;;5073159;28;20119;-78
2022/07/09 03:21:17;;;;;;;8.48;3.25;;;16.90;99.90;;;;;;5072808;28;20048;-78
2022/07/09 03:23:43;;;;;;;10.43;3.17;;;16.90;99.90;;;;;;5072799;28;20127;-78
2022/07/09 03:26:09;;;;;;;8.98;3.95;;;16.80;99.90;;;;;;5072537;28;20040;-78
2022/07/09 03:28:35;;;;;;;8.50;4.03;;;16.80;99.90;;;;;;5079069;28;20048;-77
2022/07/09 03:31:01;;;;;;;10.85;3.78;;;16.90;99.90;;;;;;5078746;28;20048;-78
2022/07/09 03:33:27;;;;;;;9.98;3.50;;;16.80;99.90;;;;;;5079941;28;20080;-78
2022/07/09 03:35:56;;;;;;;8.15;3.30;;;16.80;99.90;;;;;;5080037;28;20044;-78
2022/07/09 03:38:23;;;;;;;12.43;3.88;;;16.80;99.90;;;;;;5080005;28;20048;-78
2022/07/09 03:40:49;;;;;;;9.20;3.33;;;16.80;99.90;;;;;;5078814;28;20554;-78
2022/07/09 03:43:15;;;;;;;12.07;4.00;;;16.70;99.90;;;;;;5079845;28;20142;-78
2022/07/09 03:45:40;;;;;;;11.75;3.67;;;16.70;99.90;;;;;;5079800;28;20125;-78
2022/07/09 03:48:06;;;;;;;10.18;3.50;;;16.70;99.90;;;;;;5080274;28;20502;-78
2022/07/09 03:50:32;;;;;;;10.18;3.78;;;16.70;99.90;;;;;;5079931;28;20040;-79
2022/07/09 03:52:58;;;;;;;9.95;3.25;;;16.80;99.90;;;;;;5079741;28;20044;-78
2022/07/09 03:55:23;;;;;;;9.40;3.58;;;16.80;99.90;;;;;;5079665;28;20051;-78
2022/07/09 03:57:49;;;;;;;9.65;3.17;;;16.80;99.90;;;;;;5080000;28;20043;-78
2022/07/09 04:00:15;;;;;;;7.70;3.38;;;16.80;99.90;;;;;;5079669;28;20048;-78
2022/07/09 04:02:41;;;;;;;14.32;3.50;;;16.80;99.90;;;;;;5079989;28;20470;-78
2022/07/09 04:05:08;;;;;;;13.18;3.55;;;16.90;99.90;;;;;;5079593;28;20149;-78
2022/07/09 04:07:34;;;;;;;9.98;3.58;;;17.00;99.90;;;;;;5079787;28;20110;-78
2022/07/09 04:10:00;;;;;;;10.55;3.10;;;16.90;99.90;;;;;;5079688;28;20048;-78
2022/07/09 04:12:26;;;;;;;11.00;3.28;;;17.00;99.90;;;;;;5078366;28;20048;-78
2022/07/09 04:14:51;;;;;;;10.07;3.00;;;17.00;99.90;;;;;;5078518;28;20080;-78
2022/07/09 04:17:17;;;;;;;12.32;3.20;;;17.00;99.90;;;;;;5078482;28;20076;-78
2022/07/09 04:19:43;;;;;;;8.65;3.25;;;17.00;99.90;;;;;;5079425;28;20060;-78
2022/07/09 04:22:09;;;;;;;12.77;3.05;;;17.00;99.90;;;;;;5079564;28;20048;-78
2022/07/09 04:24:34;;;;;;;10.25;3.38;;;17.10;99.90;;;;;;5079374;28;20503;-78
2022/07/09 04:27:00;;;;;;;10.98;3.78;;;17.10;99.90;;;;;;5079682;28;20097;-79
2022/07/09 04:29:26;;;;;;;8.82;3.00;;;17.10;99.90;;;;;;5078205;28;20066;-79
2022/07/09 04:31:51;;;;;;;8.98;3.38;;;17.20;99.90;;;;;;5079639;28;20040;-79
2022/07/09 04:34:17;;;;;;;12.60;3.30;;;17.20;99.90;;;;;;5078204;28;20391;-79
2022/07/09 04:36:43;;;;;;;13.48;4.03;;;17.10;99.90;;;;;;5079335;28;20044;-78
2022/07/09 04:39:09;;;;;;;8.90;3.20;;;17.20;99.90;;;;;;5076743;28;20048;-79
2022/07/09 04:41:35;;;;;;;8.15;3.22;;;17.20;99.90;;;;;;5076147;28;20056;-78
2022/07/09 04:44:01;;;;;;;11.27;3.25;;;17.30;99.90;;;;;;5076108;28;20040;-78
2022/07/09 04:46:27;;;;;;;10.35;3.88;;;17.30;99.90;;;;;;5076244;28;20524;-78
2022/07/09 04:48:53;;;;;;;10.43;3.20;;;17.30;99.90;;;;;;5076133;28;20052;-78
2022/07/09 04:51:18;;;;;;;7.30;2.97;;;17.30;99.90;;;;;;5076062;28;20039;-79
2022/07/09 04:53:44;;;;;;;7.93;3.22;;;17.30;99.90;;;;;;5075983;28;20554;-79
2022/07/09 04:56:10;;;;;;;6.80;3.22;;;17.40;99.90;;;;;;5074768;28;20052;-79
2022/07/09 04:58:37;;;;;;;10.10;3.67;;;17.40;99.90;;;;;;5075903;28;20127;-79
2022/07/09 05:01:03;;;;;;;7.60;2.97;;;17.40;99.90;;;;;;5076072;28;20036;-79
2022/07/09 05:03:29;;;;;;;11.70;2.95;;;17.40;99.90;;;;;;5075927;28;20040;-79
2022/07/09 05:05:54;;;;;;;7.28;2.90;;;17.40;99.90;;;;;;5075879;28;20059;-78
2022/07/09 05:08:20;;;;;;;11.18;3.08;;;17.40;99.90;;;;;;5075712;28;20044;-79
2022/07/09 05:10:46;;;;;;;6.70;2.65;;;17.40;99.90;;;;;;5074687;28;20072;-79
2022/07/09 05:13:11;;;;;;;11.30;3.45;;;17.50;99.90;;;;;;5075802;28;20069;-78
2022/07/09 05:15:37;;;;;;;8.65;3.33;;;17.50;99.90;;;;;;5075510;28;20045;-79
2022/07/09 05:18:03;;;;;;;8.30;3.00;;;17.50;99.90;;;;;;5075558;28;20499;-79
2022/07/09 05:20:28;;;;;;;9.40;2.83;;;17.50;99.90;;;;;;5075367;28;20045;-79
2022/07/09 05:22:54;;;;;;;9.60;3.17;;;17.50;99.90;;;;;;5075610;28;20167;-78
2022/07/09 05:25:20;;;;;;;9.27;2.95;;;17.50;99.90;;;;;;5075593;28;20044;-79
2022/07/09 05:27:47;;;;;;;8.73;2.67;;;17.50;99.90;;;;;;5075628;28;20036;-79
2022/07/09 05:30:14;;;;;;;9.57;2.95;;;17.60;99.90;;;;;;5075569;28;20071;-79
2022/07/09 05:32:41;;;;;;;8.25;3.03;;;17.60;99.90;;;;;;5075283;28;20047;-79
2022/07/09 05:35:08;;;;;;;7.03;2.75;;;17.70;99.90;;;;;;5075462;28;20037;-79
2022/07/09 05:37:34;;;;;;;11.52;3.05;;;17.60;99.90;;;;;;5074143;28;20052;-79
2022/07/09 05:40:05;;;;;;;7.88;2.65;;;17.60;99.90;;;;;;5075047;28;20526;-78
2022/07/09 05:42:32;;;;;;;9.45;2.80;;;17.70;99.90;;;;;;5075257;28;20032;-79
2022/07/09 05:44:58;;;;;;;13.57;3.25;;;17.70;99.90;;;;;;5075063;28;20075;-79
2022/07/09 05:47:24;;;;;;;8.73;2.60;;;17.70;99.90;;;;;;5074895;28;20407;-79
2022/07/09 05:49:50;;;;;;;9.30;2.95;;;17.70;99.90;;;;;;5073142;28;20045;-78
2022/07/09 05:52:16;;;;;;;9.57;2.90;;;17.70;99.90;;;;;;5074528;28;20147;-79
2022/07/09 05:54:41;;;;;;;10.70;3.10;;;17.80;99.90;;;;;;5075101;28;20052;-79
2022/07/09 05:57:07;;;;;;;13.82;3.83;;;17.80;99.90;;;;;;5075005;28;20044;-79
2022/07/09 05:59:33;;;;;;;10.75;2.95;;;17.80;99.90;;;;;;5074827;28;20132;-78
2022/07/09 06:01:58;;;;;;;14.05;2.97;;;17.90;99.90;;;;;;5074892;28;20051;-79
2022/07/09 06:04:24;;;;;;;7.97;2.72;;;17.90;99.90;;;;;;5074428;28;20043;-79
2022/07/09 06:06:49;;;;;;;8.07;2.50;;;17.90;99.90;;;;;;5074773;28;20086;-78
2022/07/09 06:09:16;;;;;;;13.00;2.97;;;18.00;99.90;;;;;;5074717;28;20068;-78
2022/07/09 06:11:41;;;;;;;10.05;3.00;;;17.90;99.90;;;;;;5074732;28;20045;-78
2022/07/09 06:14:07;;;;;;;11.65;3.08;;;17.90;99.90;;;;;;5074372;28;20044;-78
2022/07/09 06:16:32;;;;;;;9.50;2.75;;;17.90;99.90;;;;;;5074786;28;20042;-79
2022/07/09 06:18:58;;;;;;;9.30;2.97;;;18.00;99.90;;;;;;5074350;28;20041;-78
2022/07/09 06:21:24;;;;;;;8.50;3.13;;;18.00;99.90;;;;;;5074525;28;20048;-77
2022/07/09 06:23:49;;;;;;;7.00;2.50;;;18.00;99.90;;;;;;5074403;28;20050;-76
2022/07/09 06:26:15;;;;;;;10.90;2.90;;;18.00;99.90;;;;;;5085157;28;20043;-78
2022/07/09 06:28:41;;;;;;;6.78;2.40;;;18.00;99.90;;;;;;5074263;28;20472;-77
2022/07/09 06:31:06;;;;;;;9.60;2.67;;;18.00;99.90;;;;;;5074105;28;20383;-79
2022/07/09 06:33:32;;;;;;;11.00;2.78;;;17.90;99.90;;;;;;5073858;28;20055;-77
2022/07/09 06:35:58;;;;;;;9.10;2.55;;;18.00;99.90;;;;;;5073999;28;20048;-77
2022/07/09 06:38:23;;;;;;;7.90;2.63;;;18.00;99.90;;;;;;5074053;28;20048;-77
2022/07/09 06:40:49;;;;;;;10.20;2.60;;;17.90;99.90;;;;;;5072624;28;20091;-77
2022/07/09 06:43:14;;;;;;;13.65;2.58;;;17.90;99.90;;;;;;5074013;28;20483;-76
2022/07/09 06:45:40;;;;;;;8.98;2.67;;;18.00;99.90;;;;;;5073860;28;20391;-77
2022/07/09 06:48:06;;;;;;;10.18;2.95;;;18.00;99.90;;;;;;5072340;28;20474;-76
2022/07/09 06:50:31;;;;;;;13.43;2.85;;;18.00;99.90;;;;;;5073422;28;20495;-76
2022/07/09 06:52:57;;;;;;;9.60;2.90;;;18.10;99.90;;;;;;5073817;28;20044;-77
2022/07/09 06:55:23;;;;;;;12.13;2.40;;;18.00;99.90;;;;;;5073499;28;20146;-76
2022/07/09 06:57:48;;;;;;;13.32;3.03;;;18.10;99.90;;;;;;5073564;28;20137;-76
2022/07/09 07:00:14;;;;;;;11.02;2.45;;;18.20;99.90;;;;;;5073758;28;20045;-76
2022/07/09 07:02:40;;;;;;;14.10;2.95;;;18.30;99.90;;;;;;5073216;28;20040;-76
2022/07/09 07:05:06;;;;;;;6.82;2.45;;;18.30;99.90;;;;;;5073536;28;20043;-78
2022/07/09 07:07:31;;;;;;;10.77;2.42;;;18.40;99.90;;;;;;5072138;28;20048;-76
2022/07/09 07:09:57;;;;;;;12.25;2.53;;;18.50;99.90;;;;;;5073585;28;20116;-76
2022/07/09 07:12:23;;;;;;;8.27;2.38;;;18.50;99.90;;;;;;5072054;28;20128;-76
2022/07/09 07:14:48;;;;;;;16.80;3.53;;;18.60;99.90;;;;;;5073589;28;20044;-76
2022/07/09 07:17:14;;;;;;;12.77;3.65;;;18.70;99.90;;;;;;5073215;28;20056;-75
2022/07/09 07:19:40;;;;;;;15.27;2.97;;;18.80;99.90;;;;;;5073034;28;20053;-76
2022/07/09 07:22:05;;;;;;;14.23;2.70;;;18.90;99.90;;;;;;5073298;28;20123;-77
2022/07/09 07:24:31;;;;;;;8.65;3.05;;;19.10;99.90;;;;;;5073161;28;20044;-76
2022/07/09 07:26:57;;;;;;;11.57;2.80;;;19.20;99.90;;;;;;5081606;28;20096;-76
2022/07/09 07:29:23;;;;;;;11.50;2.80;;;19.20;99.90;;;;;;5074609;28;20051;-76
2022/07/09 07:31:49;;;;;;;14.40;2.88;;;19.20;99.90;;;;;;5073092;28;20048;-76
2022/07/09 07:34:15;;;;;;;9.63;3.83;;;19.20;99.90;;;;;;5088442;28;20036;-76
2022/07/09 07:36:41;;;;;;;16.17;3.03;;;19.30;99.90;;;;;;5093499;28;20040;-76
2022/07/09 07:39:07;;;;;;;9.20;2.50;;;19.20;99.90;;;;;;5093303;28;20375;-76
2022/07/09 07:41:33;;;;;;;10.73;3.03;;;19.20;99.90;;;;;;5092986;28;20036;-76
2022/07/09 07:43:59;;;;;;;10.40;3.20;;;19.30;99.90;;;;;;5093175;28;20032;-76
2022/07/09 07:46:24;;;;;;;9.75;2.92;;;19.30;99.90;;;;;;5093293;28;20067;-76
2022/07/09 07:48:50;;;;;;;12.45;2.60;;;19.30;99.90;;;;;;5092682;28;20048;-76
2022/07/09 07:51:16;;;;;;;5.95;2.13;;;19.30;99.90;;;;;;5092795;28;20135;-76
2022/07/09 07:53:42;;;;;;;8.80;2.70;;;19.30;99.90;;;;;;5090121;28;20047;-76
2022/07/09 07:56:08;;;;;;;14.85;3.15;;;19.30;99.90;;;;;;5088542;28;20087;-76
2022/07/09 07:58:35;;;;;;;11.25;3.17;;;19.30;99.90;;;;;;5080426;28;20048;-76
2022/07/09 08:01:02;;;;;;;11.50;3.05;;;19.10;99.90;;;;;;5072847;28;20135;-76
2022/07/09 08:03:28;;;;;;;14.90;3.17;;;19.20;99.90;;;;;;5071594;28;20048;-76
2022/07/09 08:05:53;;;;;;;9.25;2.50;;;19.30;99.90;;;;;;5087744;28;20055;-76
2022/07/09 08:08:19;;;;;;;12.52;2.78;;;19.30;99.90;;;;;;5092570;28;20089;-77
2022/07/09 08:10:48;;;;;;;13.02;2.58;;;19.60;99.90;;;;;;5091938;28;20058;-76
2022/07/09 08:13:15;;;;;;;6.78;2.60;;;19.70;99.90;;;;;;5093010;28;20052;-76
2022/07/09 08:15:41;;;;;;;8.55;2.50;;;19.60;99.90;;;;;;5096738;28;20067;-76
2022/07/09 08:18:08;;;;;;;11.95;4.00;;;19.60;99.90;;;;;;5096798;28;20048;-76
2022/07/09 08:20:36;;;;;;;8.95;2.13;;;19.60;99.90;;;;;;5096535;28;20063;-75
2022/07/09 08:23:02;;;;;;;11.35;2.90;;;19.60;99.90;;;;;;5096779;28;20112;-76
2022/07/09 08:25:28;;;;;;;10.18;3.30;;;19.70;99.90;;;;;;5094408;28;20071;-76
2022/07/09 08:27:54;;;;;;;12.60;3.30;;;19.70;99.90;;;;;;5087215;28;20450;-76
2022/07/09 08:30:19;;;;;;;9.85;3.00;;;19.80;99.90;;;;;;5074763;28;20176;-76
2022/07/09 08:32:45;;;;;;;14.70;3.42;;;19.80;99.90;;;;;;5076476;28;20120;-76
2022/07/09 08:35:11;;;;;;;9.95;2.25;;;19.90;99.90;;;;;;5076039;28;20399;-75
2022/07/09 08:37:37;;;;;;;12.82;3.00;;;20.20;99.90;;;;;;5076370;28;20051;-76
2022/07/09 08:40:02;;;;;;;15.77;3.40;;;20.20;99.90;;;;;;5074770;28;20048;-76
2022/07/09 08:42:28;;;;;;;15.02;3.33;;;20.60;99.90;;;;;;5076247;28;20051;-75
2022/07/09 08:44:54;;;;;;;11.70;2.83;;;20.70;99.90;;;;;;5076053;28;20464;-76
2022/07/09 08:47:21;;;;;;;11.15;2.67;;;20.80;99.90;;;;;;5074852;28;20445;-76
2022/07/09 08:49:48;;;;;;;9.18;2.45;;;20.80;99.90;;;;;;5073458;28;20075;-76
2022/07/09 08:52:16;;;;;;;13.13;3.08;;;20.70;99.90;;;;;;5074980;28;20399;-76
2022/07/09 08:54:44;;;;;;;12.35;3.00;;;20.70;99.90;;;;;;5076040;28;20070;-80
2022/07/09 08:57:09;;;;;;;7.72;2.53;;;20.70;99.90;;;;;;5074887;28;20089;-75
2022/07/09 08:59:35;;;;;;;13.27;3.40;;;20.90;99.90;;;;;;5075931;28;20040;-75
2022/07/09 09:02:11;;;;;;;10.02;3.13;;;21.00;99.90;;;;;;5074579;28;20044;-77
2022/07/09 09:04:39;;;;;;;9.65;3.08;;;21.10;99.90;;;;;;5075725;28;20047;-75
2022/07/09 09:07:16;;;;;;;11.05;3.05;;;21.30;99.90;;;;;;5075801;28;20045;-76
2022/07/09 09:09:42;;;;;;;10.43;3.03;;;21.30;99.90;;;;;;5075560;28;20487;-74
2022/07/09 09:12:08;;;;;;;11.00;3.28;;;21.30;99.90;;;;;;5074386;28;20036;-76
2022/07/09 09:14:34;;;;;;;12.80;4.00;;;21.10;99.90;;;;;;5075407;28;20487;-75
2022/07/09 09:17:09;;;;;;;9.00;2.88;;;21.00;99.90;;;;;;5075294;28;20090;-74
2022/07/09 09:19:35;;;;;;;13.25;3.97;;;21.00;99.90;;;;;;5075138;28;20515;-75
2022/07/09 09:22:01;;;;;;;8.77;2.60;;;21.10;99.90;;;;;;5074142;28;20053;-74
2022/07/09 09:24:29;;;;;;;12.85;3.78;;;21.30;99.90;;;;;;5074915;28;20495;-73
2022/07/09 09:27:01;;;;;;;11.45;3.00;;;21.40;99.90;;;;;;5073898;28;20071;-73
2022/07/09 09:29:28;;;;;;;16.13;3.70;;;21.50;99.90;;;;;;5075450;28;20048;-74
2022/07/09 09:31:54;;;;;;;11.90;2.83;;;21.30;99.90;;;;;;5075258;28;20044;-77
2022/07/09 09:34:21;;;;;;;16.70;2.90;;;21.10;99.90;;;;;;5075228;28;20070;-74
2022/07/09 09:36:51;;;;;;;12.32;2.80;;;20.90;99.90;;;;;;5075197;28;20033;-77
2022/07/09 09:39:28;;;;;;;11.95;2.42;;;20.50;99.90;;;;;;5073818;28;20063;-77
2022/07/09 09:41:59;;;;;;;8.32;2.80;;;20.30;99.90;;;;;;5075183;28;20048;-76
2022/07/09 09:44:39;;;;;;;11.40;3.17;;;20.10;99.90;;;;;;5074826;28;20483;-75
2022/07/09 09:47:07;;;;;;;14.45;2.45;;;20.10;99.90;;;;;;5074982;28;20052;-77
2022/07/09 09:49:34;;;;;;;13.48;2.47;;;19.90;99.90;;;;;;5075127;28;20037;-77
2022/07/09 09:52:08;;;;;;;5.72;2.35;;;19.70;99.90;;;;;;5075126;28;20127;-76
2022/07/09 09:54:36;;;;;;;8.07;2.42;;;19.70;99.90;;;;;;5074943;28;20094;-75
2022/07/09 09:57:06;;;;;;;7.28;2.17;;;19.40;99.90;;;;;;5074888;28;20048;-76
2022/07/09 09:59:38;;;;;;;11.52;2.40;;;19.40;99.90;;;;;;5074868;28;20060;-76
2022/07/09 10:02:09;;;;;;;12.02;2.92;;;19.30;99.90;;;;;;5074707;28;20048;-73
2022/07/09 10:04:36;;;;;;;11.80;2.38;;;19.30;99.90;;;;;;5074609;28;20063;-76
2022/07/09 10:07:01;;;;;;;10.43;2.80;;;19.20;99.90;;;;;;5074647;28;20086;-74
2022/07/09 10:09:27;;;;;;;13.95;2.55;;;19.30;99.90;;;;;;5074615;28;20036;-75
2022/07/09 10:11:53;;;;;;;13.18;2.50;;;19.20;99.90;;;;;;5073350;28;20134;-74
2022/07/09 10:14:30;;;;;;;9.02;2.15;;;19.30;99.90;;;;;;5073310;28;20529;-76
2022/07/09 10:16:56;;;;;;;15.32;2.17;;;19.40;99.90;;;;;;5073901;28;20483;-75
2022/07/09 10:19:29;;;;;;;13.25;2.10;;;19.50;99.90;;;;;;5073991;28;20051;-76
2022/07/09 10:21:57;;;;;;;7.00;1.73;;;19.60;99.90;;;;;;5074104;28;20479;-75
2022/07/09 10:24:30;;;;;;;9.10;1.63;;;19.60;99.90;;;;;;5072748;28;20048;-76
2022/07/09 10:27:10;;;;;;;5.88;1.40;;;19.70;99.90;;;;;;5074040;28;20036;-83
2022/07/09 10:29:57;;;;;;;7.45;1.70;;;19.80;99.90;;;;;;5073897;28;20041;-84
2022/07/09 10:32:32;;;;;;;4.90;1.20;;;20.10;99.90;;;;;;5072471;28;20142;-77
2022/07/09 10:34:58;;;;;;;10.23;1.73;;;20.30;99.90;;;;;;5074214;28;20044;-76
2022/07/09 10:37:35;;;;;;;7.70;1.40;;;20.50;99.90;;;;;;5073307;28;20052;-76
2022/07/09 10:40:09;;;;;;;9.15;1.58;;;20.50;99.90;;;;;;5074170;28;20123;-76
2022/07/09 10:42:35;;;;;;;8.73;1.33;;;20.60;99.90;;;;;;5076433;28;20094;-76
2022/07/09 10:45:00;;;;;;;7.40;1.15;;;20.70;99.90;;;;;;5080510;28;20056;-76
2022/07/09 10:47:39;;;;;;;7.88;1.92;;;20.80;99.90;;;;;;5074105;28;20045;-77
2022/07/09 10:50:05;;;;;;;5.60;1.15;;;20.90;99.90;;;;;;5072820;28;20056;-75
2022/07/09 10:52:32;;;;;;;11.77;2.00;;;20.80;99.90;;;;;;5074237;28;20051;-76
2022/07/09 10:54:57;;;;;;;3.63;1.20;;;20.80;99.90;;;;;;5073969;28;20080;-77
2022/07/09 10:57:23;;;;;;;6.85;1.10;;;20.70;99.90;;;;;;5078377;28;20078;-75
2022/07/09 10:59:52;;;;;;;8.30;1.25;;;20.80;99.90;;;;;;5093990;28;20073;-76
2022/07/09 11:02:22;;;;;;;8.50;1.10;;;20.80;99.90;;;;;;5092486;28;20090;-75
2022/07/09 11:04:53;;;;;;;8.38;1.90;;;20.90;99.90;;;;;;5093971;28;20036;-76
2022/07/09 11:07:21;;;;;;;5.90;1.17;;;21.10;99.90;;;;;;5093433;28;20402;-76
2022/07/09 11:09:47;;;;;;;8.23;1.40;;;21.20;99.90;;;;;;5093800;28;20075;-76
2022/07/09 11:12:20;;;;;;;8.73;1.48;;;21.30;99.90;;;;;;5091926;28;20087;-76
2022/07/09 11:14:51;;;;;;;7.03;1.15;;;21.40;99.90;;;;;;5082577;28;20040;-76
2022/07/09 11:17:18;;;;;;;4.80;1.08;;;21.60;99.90;;;;;;5073459;28;20503;-76
2022/07/09 11:19:45;;;;;;;10.70;1.50;;;21.70;99.90;;;;;;5072228;28;20419;-76
2022/07/09 11:22:11;;;;;;;7.25;1.30;;;21.90;99.90;;;;;;5075237;28;20052;-77
2022/07/09 11:24:37;;;;;;;7.90;1.00;;;22.10;99.90;;;;;;5082796;28;20079;-76
2022/07/09 11:27:07;;;;;;;7.50;1.20;;;22.20;99.90;;;;;;5073393;28;20074;-76
2022/07/09 11:29:36;;;;;;;5.45;1.05;;;22.30;99.90;;;;;;5073577;28;20039;-76
2022/07/09 11:32:03;;;;;;;3.30;1.13;;;22.50;99.90;;;;;;5073598;28;20090;-76
2022/07/09 11:34:29;;;;;;;6.47;1.60;;;22.40;99.90;;;;;;5073576;28;20119;-77
2022/07/09 11:36:57;;;;;;;7.97;1.15;;;22.40;99.90;;;;;;5071977;28;20086;-77
2022/07/09 11:39:25;;;;;;;7.65;1.52;;;22.20;99.90;;;;;;5079450;28;20052;-77
2022/07/09 11:41:51;;;;;;;7.60;2.17;;;22.20;99.90;;;;;;5091322;28;20044;-77
2022/07/09 11:44:27;;;;;;;6.00;1.00;;;22.20;99.90;;;;;;5087459;28;20097;-76
2022/07/09 11:47:10;;;;;;;7.90;1.30;;;22.40;99.90;;;;;;5091624;28;20044;-76
2022/07/09 11:49:37;;;;;;;9.93;1.23;;;22.40;99.90;;;;;;5093954;28;20368;-77
2022/07/09 11:52:04;;;;;;;4.82;0.98;;;22.50;99.90;;;;;;5095265;28;20093;-76
2022/07/09 11:54:30;;;;;;;5.38;0.90;;;22.40;99.90;;;;;;5080238;28;20057;-77
2022/07/09 11:56:56;;;;;;;9.57;1.45;;;22.40;99.90;;;;;;5076373;28;20044;-77
2022/07/09 11:59:33;;;;;;;5.13;1.10;;;22.50;99.90;;;;;;5076476;28;20036;-77
2022/07/09 12:02:00;;;;;;;7.68;1.10;;;22.30;99.90;;;;;;5077341;28;20068;-77
2022/07/09 12:04:30;;;;;;;7.75;1.00;;;22.20;99.90;;;;;;5076943;28;20565;-77
2022/07/09 12:06:56;;;;;;;6.30;0.75;;;22.20;99.90;;;;;;5077057;28;20040;-77
2022/07/09 12:09:32;;;;;;;5.80;1.00;;;22.30;99.90;;;;;;5077123;28;20090;-76
2022/07/09 12:11:59;;;;;;;7.90;1.30;;;22.20;99.90;;;;;;5076808;28;20491;-76
2022/07/09 12:14:24;;;;;;;7.32;1.00;;;22.20;99.90;;;;;;5077048;28;20044;-76
2022/07/09 12:16:50;;;;;;;4.72;0.85;;;22.20;99.90;;;;;;5076932;28;20052;-77
2022/07/09 12:19:17;;;;;;;5.85;1.00;;;22.20;99.90;;;;;;5076686;28;20375;-77
2022/07/09 12:21:43;;;;;;;9.23;2.42;;;22.30;99.90;;;;;;5076532;28;20403;-76
2022/07/09 12:24:08;;;;;;;10.70;1.35;;;22.40;99.90;;;;;;5076809;28;20471;-77
2022/07/09 12:26:34;;;;;;;8.40;1.27;;;22.40;99.90;;;;;;5075331;28;20165;-76
2022/07/09 12:29:00;;;;;;;4.15;0.88;;;22.30;99.90;;;;;;5076710;28;20519;-76
2022/07/09 12:31:25;;;;;;;3.53;0.90;;;22.30;99.90;;;;;;5076374;28;20441;-77
2022/07/09 12:33:51;;;;;;;7.05;1.05;;;22.20;99.90;;;;;;5076251;28;20076;-78
2022/07/09 12:36:16;;;;;;;6.53;1.30;;;22.40;99.90;;;;;;5075268;28;20122;-77
2022/07/09 12:38:42;;;;;;;7.65;0.98;;;22.40;99.90;;;;;;5076574;28;20101;-77